WXM80 ListenWXM80 Stop

You find our weather info also at:

UK Metoffice

WeatherCloud

Weather Underground

Northeastern Weather Network

AWEKAS

Citizen Weather Observer Program (CWOP)

HAMweather, WeatherForYou, PWS Weather


Weather Underground History page Text

Daily Summary for March 29, 2017 Units:  Both    English   Metric
« Previous Day
Next Day »
Daily Weekly Monthly Yearly Custom
  High: Low: Average:
Temperature: 56.4 °F /  13.6 °C 39.9 °F /  4.4 °C 46.4 °F /  8 °C
Dew Point: 43.3 °F /  6.3 °C 29.6 °F /  -1.3 °C 39 °F /  3.9 °C
Humidity: 99 % 54 % 77 %
Wind Speed: 9.4 mph /  15.1 km/h - 3.7 mph /  6 km/h
Wind Gust: 16.1 mph /  25.9 km/h - -
Wind:- - SSW
Pressure: 30.21 in /  1022.9 hPa 29.89 in /  1012.1 hPa -
Precipitation: 0.00 in /  0 mm    
Historical Graphs
 
 
Tabular Data for March 29, 2017
Time Temperature Dew Point Pressure Wind Wind Speed Wind Gust Humidity Rainfall Rate (Hourly)
00:02 39.9 °F /  4.4 °C 39.4 °F /  4.1 °C 29.89 in /  1012.1 hPa NE 0.3 mph /  0.5 km/h 1.2 mph /  1.9 km/h 98 % 0.00 in /  0 mm
00:07 39.9 °F /  4.4 °C 39.4 °F /  4.1 °C 29.90 in /  1012.4 hPa Calm     98 % 0.00 in /  0 mm
00:12 39.9 °F /  4.4 °C 39.4 °F /  4.1 °C 29.89 in /  1012.1 hPa Calm     98 % 0.00 in /  0 mm
00:17 39.9 °F /  4.4 °C 39.4 °F /  4.1 °C 29.89 in /  1012.1 hPa Calm     98 % 0.00 in /  0 mm
00:22 40.0 °F /  4.4 °C 39.4 °F /  4.1 °C 29.90 in /  1012.4 hPa Calm     98 % 0.00 in /  0 mm
00:27 40.0 °F /  4.4 °C 39.5 °F /  4.2 °C 29.90 in /  1012.4 hPa Calm     98 % 0.00 in /  0 mm
00:32 40.0 °F /  4.4 °C 39.5 °F /  4.2 °C 29.89 in /  1012.1 hPa Calm     98 % 0.00 in /  0 mm
00:37 40.0 °F /  4.4 °C 39.5 °F /  4.2 °C 29.89 in /  1012.1 hPa Calm     98 % 0.00 in /  0 mm
00:42 39.9 °F /  4.4 °C 39.4 °F /  4.1 °C 29.89 in /  1012.1 hPa Calm     98 % 0.00 in /  0 mm
00:47 40.0 °F /  4.4 °C 39.5 °F /  4.2 °C 29.89 in /  1012.1 hPa Calm     98 % 0.00 in /  0 mm
00:52 40.0 °F /  4.4 °C 39.5 °F /  4.2 °C 29.89 in /  1012.1 hPa Calm     98 % 0.00 in /  0 mm
00:57 40.0 °F /  4.4 °C 39.5 °F /  4.2 °C 29.90 in /  1012.4 hPa Calm     98 % 0.00 in /  0 mm
01:02 40.0 °F /  4.4 °C 39.5 °F /  4.2 °C 29.90 in /  1012.4 hPa Calm   1.0 mph /  1.6 km/h 98 % 0.00 in /  0 mm
01:04 40.0 °F /  4.4 °C 39.5 °F /  4.2 °C 29.90 in /  1012.4 hPa Calm     98 % 0.00 in /  0 mm
01:09 40.1 °F /  4.5 °C 39.6 °F /  4.2 °C 29.90 in /  1012.4 hPa Calm     98 % 0.00 in /  0 mm
01:14 40.2 °F /  4.6 °C 39.7 °F /  4.3 °C 29.90 in /  1012.4 hPa NNW 0.4 mph /  0.6 km/h 2.3 mph /  3.7 km/h 98 % 0.00 in /  0 mm
01:19 40.2 °F /  4.6 °C 39.7 °F /  4.3 °C 29.90 in /  1012.4 hPa Calm   1.2 mph /  1.9 km/h 98 % 0.00 in /  0 mm
01:24 40.2 °F /  4.6 °C 39.7 °F /  4.3 °C 29.90 in /  1012.4 hPa NNW 0.9 mph /  1.4 km/h 2.0 mph /  3.2 km/h 98 % 0.00 in /  0 mm
01:30 40.2 °F /  4.6 °C 39.7 °F /  4.3 °C 29.90 in /  1012.4 hPa NNW 0.1 mph /  0.2 km/h 2.3 mph /  3.7 km/h 98 % 0.00 in /  0 mm
01:35 40.1 °F /  4.5 °C 39.6 °F /  4.2 °C 29.90 in /  1012.4 hPa NNW 0.6 mph /  1 km/h 1.2 mph /  1.9 km/h 98 % 0.00 in /  0 mm
01:40 40.1 °F /  4.5 °C 39.6 °F /  4.2 °C 29.89 in /  1012.1 hPa NNW 1.1 mph /  1.8 km/h 2.3 mph /  3.7 km/h 98 % 0.00 in /  0 mm
01:45 40.2 °F /  4.6 °C 39.7 °F /  4.3 °C 29.90 in /  1012.4 hPa NNW 0.8 mph /  1.3 km/h 2.3 mph /  3.7 km/h 98 % 0.00 in /  0 mm
01:50 40.2 °F /  4.6 °C 39.7 °F /  4.3 °C 29.90 in /  1012.4 hPa NW 2.7 mph /  4.3 km/h 4.0 mph /  6.4 km/h 98 % 0.00 in /  0 mm
01:55 40.3 °F /  4.6 °C 39.8 °F /  4.3 °C 29.89 in /  1012.1 hPa NW 0.3 mph /  0.5 km/h 2.3 mph /  3.7 km/h 98 % 0.00 in /  0 mm
02:00 40.4 °F /  4.7 °C 39.9 °F /  4.4 °C 29.90 in /  1012.4 hPa WNW 2.3 mph /  3.7 km/h 3.5 mph /  5.6 km/h 98 % 0.00 in /  0 mm
02:05 40.5 °F /  4.7 °C 40.0 °F /  4.4 °C 29.89 in /  1012.1 hPa WNW 2.2 mph /  3.5 km/h 3.5 mph /  5.6 km/h 98 % 0.00 in /  0 mm
02:10 40.5 °F /  4.7 °C 40.0 °F /  4.4 °C 29.89 in /  1012.1 hPa WNW 0.6 mph /  1 km/h 3.5 mph /  5.6 km/h 98 % 0.00 in /  0 mm
02:15 40.7 °F /  4.8 °C 40.2 °F /  4.6 °C 29.89 in /  1012.1 hPa WNW 0.6 mph /  1 km/h 2.3 mph /  3.7 km/h 98 % 0.00 in /  0 mm
02:20 40.9 °F /  4.9 °C 40.6 °F /  4.8 °C 29.90 in /  1012.4 hPa WNW 0.7 mph /  1.1 km/h 3.5 mph /  5.6 km/h 99 % 0.00 in /  0 mm
02:25 41.1 °F /  5.1 °C 40.8 °F /  4.9 °C 29.91 in /  1012.8 hPa WNW 1.5 mph /  2.4 km/h 3.5 mph /  5.6 km/h 99 % 0.00 in /  0 mm
02:30 41.3 °F /  5.2 °C 40.8 °F /  4.9 °C 29.91 in /  1012.8 hPa WNW 0.2 mph /  0.3 km/h 2.3 mph /  3.7 km/h 98 % 0.00 in /  0 mm
02:35 41.5 °F /  5.3 °C 41.0 °F /  5 °C 29.91 in /  1012.8 hPa WNW 0.1 mph /  0.2 km/h 3.5 mph /  5.6 km/h 98 % 0.00 in /  0 mm
02:40 41.5 °F /  5.3 °C 41.2 °F /  5.1 °C 29.91 in /  1012.8 hPa Calm     99 % 0.00 in /  0 mm
02:45 41.6 °F /  5.3 °C 41.3 °F /  5.2 °C 29.91 in /  1012.8 hPa WNW 0.8 mph /  1.3 km/h 3.5 mph /  5.6 km/h 99 % 0.00 in /  0 mm
02:50 41.7 °F /  5.4 °C 41.4 °F /  5.2 °C 29.91 in /  1012.8 hPa WNW 1.3 mph /  2.1 km/h 2.3 mph /  3.7 km/h 99 % 0.00 in /  0 mm
02:55 41.8 °F /  5.4 °C 41.5 °F /  5.3 °C 29.91 in /  1012.8 hPa WNW 2.3 mph /  3.7 km/h 3.0 mph /  4.8 km/h 99 % 0.00 in /  0 mm
03:00 41.8 °F /  5.4 °C 41.5 °F /  5.3 °C 29.91 in /  1012.8 hPa NW 1.1 mph /  1.8 km/h 3.5 mph /  5.6 km/h 99 % 0.00 in /  0 mm
03:06 41.9 °F /  5.5 °C 41.6 °F /  5.3 °C 29.91 in /  1012.8 hPa West 3.1 mph /  5 km/h 4.6 mph /  7.4 km/h 99 % 0.00 in /  0 mm
03:11 41.9 °F /  5.5 °C 41.6 °F /  5.3 °C 29.91 in /  1012.8 hPa WNW 3.0 mph /  4.8 km/h 3.5 mph /  5.6 km/h 99 % 0.00 in /  0 mm
03:16 42.0 °F /  5.6 °C 41.7 °F /  5.4 °C 29.91 in /  1012.8 hPa WNW 0.3 mph /  0.5 km/h 2.3 mph /  3.7 km/h 99 % 0.00 in /  0 mm
03:21 42.0 °F /  5.6 °C 41.7 °F /  5.4 °C 29.91 in /  1012.8 hPa WNW 1.5 mph /  2.4 km/h 3.5 mph /  5.6 km/h 99 % 0.00 in /  0 mm
03:26 42.0 °F /  5.6 °C 41.7 °F /  5.4 °C 29.91 in /  1012.8 hPa Calm   1.2 mph /  1.9 km/h 99 % 0.00 in /  0 mm
03:31 42.1 °F /  5.6 °C 41.8 °F /  5.4 °C 29.91 in /  1012.8 hPa WNW 1.0 mph /  1.6 km/h 3.0 mph /  4.8 km/h 99 % 0.00 in /  0 mm
03:36 42.2 °F /  5.7 °C 41.9 °F /  5.5 °C 29.92 in /  1013.1 hPa WNW 1.1 mph /  1.8 km/h 3.5 mph /  5.6 km/h 99 % 0.00 in /  0 mm
03:41 42.3 °F /  5.7 °C 42.0 °F /  5.6 °C 29.91 in /  1012.8 hPa WNW 0.5 mph /  0.8 km/h 2.3 mph /  3.7 km/h 99 % 0.00 in /  0 mm
03:46 42.3 °F /  5.7 °C 42.0 °F /  5.6 °C 29.92 in /  1013.1 hPa WNW 1.7 mph /  2.7 km/h 3.0 mph /  4.8 km/h 99 % 0.00 in /  0 mm
03:51 42.4 °F /  5.8 °C 42.1 °F /  5.6 °C 29.92 in /  1013.1 hPa WNW 2.6 mph /  4.2 km/h 4.0 mph /  6.4 km/h 99 % 0.00 in /  0 mm
03:56 42.4 °F /  5.8 °C 42.1 °F /  5.6 °C 29.92 in /  1013.1 hPa WNW 2.0 mph /  3.2 km/h 3.5 mph /  5.6 km/h 99 % 0.00 in /  0 mm
04:01 42.5 °F /  5.8 °C 42.2 °F /  5.7 °C 29.92 in /  1013.1 hPa NW 1.3 mph /  2.1 km/h 3.5 mph /  5.6 km/h 99 % 0.00 in /  0 mm
04:06 42.5 °F /  5.8 °C 42.0 °F /  5.6 °C 29.93 in /  1013.4 hPa NW 0.8 mph /  1.3 km/h 3.5 mph /  5.6 km/h 98 % 0.00 in /  0 mm
04:11 42.5 °F /  5.8 °C 42.2 °F /  5.7 °C 29.93 in /  1013.4 hPa NW 0.7 mph /  1.1 km/h 2.3 mph /  3.7 km/h 99 % 0.00 in /  0 mm
04:13 42.6 °F /  5.9 °C 42.3 °F /  5.7 °C 29.93 in /  1013.4 hPa NW 0.4 mph /  0.6 km/h 2.3 mph /  3.7 km/h 99 % 0.00 in /  0 mm
04:18 42.6 °F /  5.9 °C 42.3 °F /  5.7 °C 29.93 in /  1013.4 hPa NW 0.4 mph /  0.6 km/h 1.2 mph /  1.9 km/h 99 % 0.00 in /  0 mm
04:23 42.6 °F /  5.9 °C 42.3 °F /  5.7 °C 29.93 in /  1013.4 hPa NW 0.3 mph /  0.5 km/h 1.2 mph /  1.9 km/h 99 % 0.00 in /  0 mm
04:28 42.7 °F /  5.9 °C 42.4 °F /  5.8 °C 29.93 in /  1013.4 hPa NW 1.3 mph /  2.1 km/h 2.3 mph /  3.7 km/h 99 % 0.00 in /  0 mm
04:33 42.7 °F /  5.9 °C 42.4 °F /  5.8 °C 29.93 in /  1013.4 hPa WNW 0.1 mph /  0.2 km/h   99 % 0.00 in /  0 mm
04:38 42.8 °F /  6 °C 42.5 °F /  5.8 °C 29.94 in /  1013.8 hPa WNW 1.3 mph /  2.1 km/h 3.5 mph /  5.6 km/h 99 % 0.00 in /  0 mm
04:43 42.8 °F /  6 °C 42.5 °F /  5.8 °C 29.94 in /  1013.8 hPa NW 2.3 mph /  3.7 km/h 3.5 mph /  5.6 km/h 99 % 0.00 in /  0 mm
04:48 42.9 °F /  6.1 °C 42.6 °F /  5.9 °C 29.94 in /  1013.8 hPa NW 0.7 mph /  1.1 km/h 4.6 mph /  7.4 km/h 99 % 0.00 in /  0 mm
04:53 43.0 °F /  6.1 °C 42.7 °F /  5.9 °C 29.94 in /  1013.8 hPa WNW 1.8 mph /  2.9 km/h 3.5 mph /  5.6 km/h 99 % 0.00 in /  0 mm
04:59 43.1 °F /  6.2 °C 42.8 °F /  6 °C 29.94 in /  1013.8 hPa NW 3.0 mph /  4.8 km/h 6.0 mph /  9.7 km/h 99 % 0.00 in /  0 mm
05:04 43.1 °F /  6.2 °C 42.8 °F /  6 °C 29.94 in /  1013.8 hPa WNW 1.9 mph /  3.1 km/h 5.8 mph /  9.3 km/h 99 % 0.00 in /  0 mm
05:09 43.2 °F /  6.2 °C 42.9 °F /  6.1 °C 29.95 in /  1014.1 hPa NW 1.5 mph /  2.4 km/h 6.9 mph /  11.1 km/h 99 % 0.00 in /  0 mm
05:14 43.2 °F /  6.2 °C 42.9 °F /  6.1 °C 29.94 in /  1013.8 hPa WNW 1.7 mph /  2.7 km/h 5.8 mph /  9.3 km/h 99 % 0.00 in /  0 mm
05:19 43.2 °F /  6.2 °C 42.9 °F /  6.1 °C 29.94 in /  1013.8 hPa NW 3.0 mph /  4.8 km/h 4.6 mph /  7.4 km/h 99 % 0.00 in /  0 mm
05:24 43.2 °F /  6.2 °C 42.9 °F /  6.1 °C 29.95 in /  1014.1 hPa NNW 3.9 mph /  6.3 km/h 8.1 mph /  13 km/h 99 % 0.00 in /  0 mm
05:29 43.0 °F /  6.1 °C 42.7 °F /  5.9 °C 29.95 in /  1014.1 hPa North 3.4 mph /  5.5 km/h 6.9 mph /  11.1 km/h 99 % 0.00 in /  0 mm
05:34 42.8 °F /  6 °C 42.5 °F /  5.8 °C 29.96 in /  1014.4 hPa NW 1.7 mph /  2.7 km/h 3.5 mph /  5.6 km/h 99 % 0.00 in /  0 mm
05:39 42.6 °F /  5.9 °C 42.3 °F /  5.7 °C 29.95 in /  1014.1 hPa North 2.1 mph /  3.4 km/h 4.0 mph /  6.4 km/h 99 % 0.00 in /  0 mm
05:44 42.4 °F /  5.8 °C 41.9 °F /  5.5 °C 29.95 in /  1014.1 hPa NW 2.7 mph /  4.3 km/h 4.6 mph /  7.4 km/h 98 % 0.00 in /  0 mm
05:49 42.3 °F /  5.7 °C 41.8 °F /  5.4 °C 29.96 in /  1014.4 hPa North 2.8 mph /  4.5 km/h 6.0 mph /  9.7 km/h 98 % 0.00 in /  0 mm
05:54 42.2 °F /  5.7 °C 41.9 °F /  5.5 °C 29.96 in /  1014.4 hPa NW 2.9 mph /  4.7 km/h 4.6 mph /  7.4 km/h 99 % 0.00 in /  0 mm
05:59 42.2 °F /  5.7 °C 41.7 °F /  5.4 °C 29.96 in /  1014.4 hPa WNW 2.9 mph /  4.7 km/h 4.6 mph /  7.4 km/h 98 % 0.00 in /  0 mm
06:04 42.1 °F /  5.6 °C 41.6 °F /  5.3 °C 29.96 in /  1014.4 hPa NNW 5.3 mph /  8.5 km/h 11.0 mph /  17.7 km/h 98 % 0.00 in /  0 mm
06:09 42.0 °F /  5.6 °C 41.5 °F /  5.3 °C 29.97 in /  1014.8 hPa NW 4.6 mph /  7.4 km/h 6.9 mph /  11.1 km/h 98 % 0.00 in /  0 mm
06:14 42.0 °F /  5.6 °C 41.5 °F /  5.3 °C 29.96 in /  1014.4 hPa WNW 3.1 mph /  5 km/h 5.8 mph /  9.3 km/h 98 % 0.00 in /  0 mm
06:19 42.0 °F /  5.6 °C 41.5 °F /  5.3 °C 29.96 in /  1014.4 hPa NW 2.7 mph /  4.3 km/h 9.2 mph /  14.8 km/h 98 % 0.00 in /  0 mm
06:24 41.9 °F /  5.5 °C 41.4 °F /  5.2 °C 29.97 in /  1014.8 hPa NNW 2.2 mph /  3.5 km/h 5.8 mph /  9.3 km/h 98 % 0.00 in /  0 mm
06:29 41.9 °F /  5.5 °C 41.4 °F /  5.2 °C 29.97 in /  1014.8 hPa NNW 4.6 mph /  7.4 km/h 9.2 mph /  14.8 km/h 98 % 0.00 in /  0 mm
06:34 41.8 °F /  5.4 °C 41.3 °F /  5.2 °C 29.98 in /  1015.1 hPa NNW 2.2 mph /  3.5 km/h 9.2 mph /  14.8 km/h 98 % 0.00 in /  0 mm
06:40 41.8 °F /  5.4 °C 41.3 °F /  5.2 °C 29.98 in /  1015.1 hPa NW 3.8 mph /  6.1 km/h 7.0 mph /  11.3 km/h 98 % 0.00 in /  0 mm
06:45 41.8 °F /  5.4 °C 41.3 °F /  5.2 °C 29.99 in /  1015.5 hPa NW 2.5 mph /  4 km/h 5.0 mph /  8 km/h 98 % 0.00 in /  0 mm
06:50 41.8 °F /  5.4 °C 41.3 °F /  5.2 °C 29.99 in /  1015.5 hPa NNE 3.1 mph /  5 km/h 6.9 mph /  11.1 km/h 98 % 0.00 in /  0 mm
06:55 41.8 °F /  5.4 °C 41.3 °F /  5.2 °C 29.99 in /  1015.5 hPa NNE 4.3 mph /  6.9 km/h 7.0 mph /  11.3 km/h 98 % 0.00 in /  0 mm
07:00 41.8 °F /  5.4 °C 41.0 °F /  5 °C 29.98 in /  1015.1 hPa NNE 2.1 mph /  3.4 km/h 3.5 mph /  5.6 km/h 97 % 0.00 in /  0 mm
07:05 41.8 °F /  5.4 °C 41.0 °F /  5 °C 29.99 in /  1015.5 hPa North 2.3 mph /  3.7 km/h 3.5 mph /  5.6 km/h 97 % 0.00 in /  0 mm
07:10 41.8 °F /  5.4 °C 41.0 °F /  5 °C 29.99 in /  1015.5 hPa North 4.5 mph /  7.2 km/h 8.1 mph /  13 km/h 97 % 0.00 in /  0 mm
07:15 41.9 °F /  5.5 °C 41.1 °F /  5.1 °C 29.99 in /  1015.5 hPa North 1.5 mph /  2.4 km/h 6.9 mph /  11.1 km/h 97 % 0.00 in /  0 mm
07:20 42.0 °F /  5.6 °C 40.9 °F /  4.9 °C 29.99 in /  1015.5 hPa NNW 1.9 mph /  3.1 km/h 4.6 mph /  7.4 km/h 96 % 0.00 in /  0 mm
07:25 42.0 °F /  5.6 °C 40.9 °F /  4.9 °C 30.00 in /  1015.8 hPa North 2.4 mph /  3.9 km/h 7.0 mph /  11.3 km/h 96 % 0.00 in /  0 mm
07:30 42.1 °F /  5.6 °C 41.0 °F /  5 °C 30.00 in /  1015.8 hPa NNW 1.1 mph /  1.8 km/h 3.5 mph /  5.6 km/h 96 % 0.00 in /  0 mm
07:35 42.1 °F /  5.6 °C 40.8 °F /  4.9 °C 30.01 in /  1016.1 hPa NW 0.7 mph /  1.1 km/h 3.0 mph /  4.8 km/h 95 % 0.00 in /  0 mm
07:40 42.2 °F /  5.7 °C 40.9 °F /  4.9 °C 30.00 in /  1015.8 hPa NNW 1.1 mph /  1.8 km/h 5.0 mph /  8 km/h 95 % 0.00 in /  0 mm
07:45 42.4 °F /  5.8 °C 41.1 °F /  5.1 °C 30.01 in /  1016.1 hPa NW 2.1 mph /  3.4 km/h 4.6 mph /  7.4 km/h 95 % 0.00 in /  0 mm
07:50 42.6 °F /  5.9 °C 41.3 °F /  5.2 °C 30.00 in /  1015.8 hPa NW 2.9 mph /  4.7 km/h 5.8 mph /  9.3 km/h 95 % 0.00 in /  0 mm
07:55 42.9 °F /  6.1 °C 41.3 °F /  5.2 °C 30.00 in /  1015.8 hPa NNW 1.2 mph /  1.9 km/h 4.6 mph /  7.4 km/h 94 % 0.00 in /  0 mm
08:00 43.1 °F /  6.2 °C 41.2 °F /  5.1 °C 30.01 in /  1016.1 hPa NW 3.5 mph /  5.6 km/h 6.9 mph /  11.1 km/h 93 % 0.00 in /  0 mm
08:03 43.3 °F /  6.3 °C 41.4 °F /  5.2 °C 30.01 in /  1016.1 hPa North 2.3 mph /  3.7 km/h 5.8 mph /  9.3 km/h 93 % 0.00 in /  0 mm
08:08 43.6 °F /  6.4 °C 41.4 °F /  5.2 °C 30.01 in /  1016.1 hPa NW 2.1 mph /  3.4 km/h 4.6 mph /  7.4 km/h 92 % 0.00 in /  0 mm
08:13 43.8 °F /  6.6 °C 41.3 °F /  5.2 °C 30.01 in /  1016.1 hPa NNW 3.4 mph /  5.5 km/h 4.6 mph /  7.4 km/h 91 % 0.00 in /  0 mm
08:18 44.0 °F /  6.7 °C 41.3 °F /  5.2 °C 30.01 in /  1016.1 hPa NNE 3.1 mph /  5 km/h 5.8 mph /  9.3 km/h 90 % 0.00 in /  0 mm
08:23 44.2 °F /  6.8 °C 41.5 °F /  5.3 °C 30.01 in /  1016.1 hPa North 3.1 mph /  5 km/h 8.1 mph /  13 km/h 90 % 0.00 in /  0 mm
08:28 44.4 °F /  6.9 °C 41.4 °F /  5.2 °C 30.01 in /  1016.1 hPa North 1.8 mph /  2.9 km/h 3.5 mph /  5.6 km/h 89 % 0.00 in /  0 mm
08:33 44.4 °F /  6.9 °C 41.4 °F /  5.2 °C 30.01 in /  1016.1 hPa NNW 3.3 mph /  5.3 km/h 5.8 mph /  9.3 km/h 89 % 0.00 in /  0 mm
08:38 44.6 °F /  7 °C 41.6 °F /  5.3 °C 30.02 in /  1016.5 hPa North 0.8 mph /  1.3 km/h 8.1 mph /  13 km/h 89 % 0.00 in /  0 mm
08:43 44.7 °F /  7.1 °C 41.4 °F /  5.2 °C 30.01 in /  1016.1 hPa North 2.9 mph /  4.7 km/h 3.5 mph /  5.6 km/h 88 % 0.00 in /  0 mm
08:48 45.2 °F /  7.3 °C 42.2 °F /  5.7 °C 30.01 in /  1016.1 hPa North 3.2 mph /  5.1 km/h 6.9 mph /  11.1 km/h 89 % 0.00 in /  0 mm
08:53 45.6 °F /  7.6 °C 42.0 °F /  5.6 °C 30.01 in /  1016.1 hPa NNW 3.6 mph /  5.8 km/h 6.0 mph /  9.7 km/h 87 % 0.00 in /  0 mm
08:58 46.0 °F /  7.8 °C 42.3 °F /  5.7 °C 30.01 in /  1016.1 hPa NE 3.9 mph /  6.3 km/h 5.0 mph /  8 km/h 87 % 0.00 in /  0 mm
09:03 46.5 °F /  8.1 °C 42.2 °F /  5.7 °C 30.01 in /  1016.1 hPa North 4.1 mph /  6.6 km/h 6.0 mph /  9.7 km/h 85 % 0.00 in /  0 mm
09:08 46.6 °F /  8.1 °C 41.7 °F /  5.4 °C 30.02 in /  1016.5 hPa North 4.7 mph /  7.6 km/h 6.9 mph /  11.1 km/h 83 % 0.00 in /  0 mm
09:13 46.6 °F /  8.1 °C 41.7 °F /  5.4 °C 30.02 in /  1016.5 hPa NNE 4.6 mph /  7.4 km/h 6.9 mph /  11.1 km/h 83 % 0.00 in /  0 mm
09:18 46.4 °F /  8 °C 41.2 °F /  5.1 °C 30.03 in /  1016.8 hPa NNE 4.2 mph /  6.8 km/h 10.4 mph /  16.7 km/h 82 % 0.00 in /  0 mm
09:23 46.3 °F /  7.9 °C 41.1 °F /  5.1 °C 30.03 in /  1016.8 hPa North 4.8 mph /  7.7 km/h 11.5 mph /  18.5 km/h 82 % 0.00 in /  0 mm
09:28 46.0 °F /  7.8 °C 40.5 °F /  4.7 °C 30.03 in /  1016.8 hPa NE 7.7 mph /  12.4 km/h 13.8 mph /  22.2 km/h 81 % 0.00 in /  0 mm
09:33 45.8 °F /  7.7 °C 40.0 °F /  4.4 °C 30.03 in /  1016.8 hPa North 6.3 mph /  10.1 km/h 11.5 mph /  18.5 km/h 80 % 0.00 in /  0 mm
09:39 45.6 °F /  7.6 °C 40.1 °F /  4.5 °C 30.03 in /  1016.8 hPa NNW 6.6 mph /  10.6 km/h 11.0 mph /  17.7 km/h 81 % 0.00 in /  0 mm
09:44 45.5 °F /  7.5 °C 40.0 °F /  4.4 °C 30.03 in /  1016.8 hPa NNW 5.7 mph /  9.2 km/h 10.4 mph /  16.7 km/h 81 % 0.00 in /  0 mm
09:49 45.4 °F /  7.4 °C 39.9 °F /  4.4 °C 30.02 in /  1016.5 hPa NNW 5.5 mph /  8.9 km/h 9.2 mph /  14.8 km/h 81 % 0.00 in /  0 mm
09:54 45.5 °F /  7.5 °C 40.3 °F /  4.6 °C 30.03 in /  1016.8 hPa North 5.5 mph /  8.9 km/h 8.1 mph /  13 km/h 82 % 0.00 in /  0 mm
09:59 45.6 °F /  7.6 °C 40.4 °F /  4.7 °C 30.03 in /  1016.8 hPa NNE 2.6 mph /  4.2 km/h 5.8 mph /  9.3 km/h 82 % 0.00 in /  0 mm
10:04 45.6 °F /  7.6 °C 40.1 °F /  4.5 °C 30.03 in /  1016.8 hPa NW 3.9 mph /  6.3 km/h 11.5 mph /  18.5 km/h 81 % 0.00 in /  0 mm
10:09 45.7 °F /  7.6 °C 40.2 °F /  4.6 °C 30.03 in /  1016.8 hPa NW 2.0 mph /  3.2 km/h 5.8 mph /  9.3 km/h 81 % 0.00 in /  0 mm
10:14 45.9 °F /  7.7 °C 40.4 °F /  4.7 °C 30.03 in /  1016.8 hPa NW 3.8 mph /  6.1 km/h 5.8 mph /  9.3 km/h 81 % 0.00 in /  0 mm
10:19 46.1 °F /  7.8 °C 40.6 °F /  4.8 °C 30.03 in /  1016.8 hPa NW 5.8 mph /  9.3 km/h 8.1 mph /  13 km/h 81 % 0.00 in /  0 mm
10:24 46.2 °F /  7.9 °C 40.4 °F /  4.7 °C 30.03 in /  1016.8 hPa North 6.5 mph /  10.5 km/h 11.5 mph /  18.5 km/h 80 % 0.00 in /  0 mm
10:29 46.7 °F /  8.2 °C 41.2 °F /  5.1 °C 30.04 in /  1017.2 hPa NW 5.4 mph /  8.7 km/h 8.0 mph /  12.9 km/h 81 % 0.00 in /  0 mm
10:34 46.9 °F /  8.3 °C 40.7 °F /  4.8 °C 30.04 in /  1017.2 hPa WNW 4.8 mph /  7.7 km/h 7.0 mph /  11.3 km/h 79 % 0.00 in /  0 mm
10:35 47.0 °F /  8.3 °C 40.8 °F /  4.9 °C 30.04 in /  1017.2 hPa NNW 4.8 mph /  7.7 km/h 6.9 mph /  11.1 km/h 79 % 0.00 in /  0 mm
10:40 47.5 °F /  8.6 °C 41.6 °F /  5.3 °C 30.04 in /  1017.2 hPa NNW 1.4 mph /  2.3 km/h 4.6 mph /  7.4 km/h 80 % 0.00 in /  0 mm
10:45 47.8 °F /  8.8 °C 40.9 °F /  4.9 °C 30.04 in /  1017.2 hPa NNW 3.4 mph /  5.5 km/h 6.9 mph /  11.1 km/h 77 % 0.00 in /  0 mm
10:50 48.0 °F /  8.9 °C 41.1 °F /  5.1 °C 30.04 in /  1017.2 hPa NNW 5.6 mph /  9 km/h 9.2 mph /  14.8 km/h 77 % 0.00 in /  0 mm
10:55 48.4 °F /  9.1 °C 42.2 °F /  5.7 °C 30.04 in /  1017.2 hPa NNW 4.3 mph /  6.9 km/h 11.0 mph /  17.7 km/h 79 % 0.00 in /  0 mm
11:00 48.8 °F /  9.3 °C 41.2 °F /  5.1 °C 30.04 in /  1017.2 hPa NNW 5.9 mph /  9.5 km/h 11.5 mph /  18.5 km/h 75 % 0.00 in /  0 mm
11:05 49.1 °F /  9.5 °C 42.2 °F /  5.7 °C 30.04 in /  1017.2 hPa NNW 5.3 mph /  8.5 km/h 6.9 mph /  11.1 km/h 77 % 0.00 in /  0 mm
11:10 49.4 °F /  9.7 °C 41.5 °F /  5.3 °C 30.04 in /  1017.2 hPa NNW 4.7 mph /  7.6 km/h 9.2 mph /  14.8 km/h 74 % 0.00 in /  0 mm
11:16 49.6 °F /  9.8 °C 41.7 °F /  5.4 °C 30.04 in /  1017.2 hPa WNW 4.9 mph /  7.9 km/h 10.4 mph /  16.7 km/h 74 % 0.00 in /  0 mm
11:21 49.9 °F /  9.9 °C 42.3 °F /  5.7 °C 30.05 in /  1017.5 hPa NW 4.0 mph /  6.4 km/h 5.8 mph /  9.3 km/h 75 % 0.00 in /  0 mm
11:26 50.0 °F /  10 °C 41.7 °F /  5.4 °C 30.05 in /  1017.5 hPa NW 4.3 mph /  6.9 km/h 9.2 mph /  14.8 km/h 73 % 0.00 in /  0 mm
11:31 50.2 °F /  10.1 °C 42.2 °F /  5.7 °C 30.05 in /  1017.5 hPa NNW 5.5 mph /  8.9 km/h 8.1 mph /  13 km/h 74 % 0.00 in /  0 mm
11:33 50.3 °F /  10.2 °C 42.0 °F /  5.6 °C 30.05 in /  1017.5 hPa WNW 2.2 mph /  3.5 km/h 4.6 mph /  7.4 km/h 73 % 0.00 in /  0 mm
11:38 50.6 °F /  10.3 °C 41.2 °F /  5.1 °C 30.04 in /  1017.2 hPa NNW 7.0 mph /  11.3 km/h 11.5 mph /  18.5 km/h 70 % 0.00 in /  0 mm
11:43 50.8 °F /  10.4 °C 42.1 °F /  5.6 °C 30.03 in /  1016.8 hPa North 6.0 mph /  9.7 km/h 15.0 mph /  24.1 km/h 72 % 0.00 in /  0 mm
11:48 50.9 °F /  10.5 °C 41.8 °F /  5.4 °C 30.04 in /  1017.2 hPa NW 3.2 mph /  5.1 km/h 5.8 mph /  9.3 km/h 71 % 0.00 in /  0 mm
11:53 51.3 °F /  10.7 °C 42.9 °F /  6.1 °C 30.03 in /  1016.8 hPa NW 4.2 mph /  6.8 km/h 8.1 mph /  13 km/h 73 % 0.00 in /  0 mm
11:58 51.4 °F /  10.8 °C 41.9 °F /  5.5 °C 30.04 in /  1017.2 hPa NNW 7.1 mph /  11.4 km/h 11.5 mph /  18.5 km/h 70 % 0.00 in /  0 mm
12:03 51.4 °F /  10.8 °C 42.7 °F /  5.9 °C 30.04 in /  1017.2 hPa WNW 4.4 mph /  7.1 km/h 7.0 mph /  11.3 km/h 72 % 0.00 in /  0 mm
12:08 51.8 °F /  11 °C 42.3 °F /  5.7 °C 30.04 in /  1017.2 hPa WNW 3.2 mph /  5.1 km/h 4.6 mph /  7.4 km/h 70 % 0.00 in /  0 mm
12:13 52.1 °F /  11.2 °C 43.0 °F /  6.1 °C 30.03 in /  1016.8 hPa NNE 4.1 mph /  6.6 km/h 6.0 mph /  9.7 km/h 71 % 0.00 in /  0 mm
12:18 52.3 °F /  11.3 °C 41.3 °F /  5.2 °C 30.03 in /  1016.8 hPa North 7.7 mph /  12.4 km/h 10.4 mph /  16.7 km/h 66 % 0.00 in /  0 mm
12:23 52.3 °F /  11.3 °C 41.7 °F /  5.4 °C 30.03 in /  1016.8 hPa NNW 6.8 mph /  10.9 km/h 12.7 mph /  20.4 km/h 67 % 0.00 in /  0 mm
12:28 52.4 °F /  11.3 °C 42.1 °F /  5.6 °C 30.03 in /  1016.8 hPa NNW 5.9 mph /  9.5 km/h 8.1 mph /  13 km/h 68 % 0.00 in /  0 mm
12:33 52.8 °F /  11.6 °C 41.7 °F /  5.4 °C 30.03 in /  1016.8 hPa NE 5.7 mph /  9.2 km/h 9.2 mph /  14.8 km/h 66 % 0.00 in /  0 mm
12:38 53.1 °F /  11.7 °C 42.0 °F /  5.6 °C 30.03 in /  1016.8 hPa NE 7.1 mph /  11.4 km/h 9.2 mph /  14.8 km/h 66 % 0.00 in /  0 mm
12:44 53.5 °F /  11.9 °C 42.4 °F /  5.8 °C 30.03 in /  1016.8 hPa NNW 5.7 mph /  9.2 km/h 9.2 mph /  14.8 km/h 66 % 0.00 in /  0 mm
12:49 53.9 °F /  12.2 °C 42.8 °F /  6 °C 30.03 in /  1016.8 hPa NNE 6.0 mph /  9.7 km/h 10.0 mph /  16.1 km/h 66 % 0.00 in /  0 mm
12:54 54.0 °F /  12.2 °C 42.1 °F /  5.6 °C 30.02 in /  1016.5 hPa NE 6.7 mph /  10.8 km/h 8.1 mph /  13 km/h 64 % 0.00 in /  0 mm
12:59 54.4 °F /  12.4 °C 42.9 °F /  6.1 °C 30.03 in /  1016.8 hPa NE 4.5 mph /  7.2 km/h 8.1 mph /  13 km/h 65 % 0.00 in /  0 mm
13:04 54.6 °F /  12.6 °C 42.7 °F /  5.9 °C 30.02 in /  1016.5 hPa NNE 4.9 mph /  7.9 km/h 6.9 mph /  11.1 km/h 64 % 0.00 in /  0 mm
13:09 54.9 °F /  12.7 °C 42.9 °F /  6.1 °C 30.02 in /  1016.5 hPa North 4.3 mph /  6.9 km/h 6.0 mph /  9.7 km/h 64 % 0.00 in /  0 mm
13:14 55.3 °F /  12.9 °C 43.3 °F /  6.3 °C 30.02 in /  1016.5 hPa North 3.5 mph /  5.6 km/h 5.0 mph /  8 km/h 64 % 0.00 in /  0 mm
13:19 55.4 °F /  13 °C 41.7 °F /  5.4 °C 30.02 in /  1016.5 hPa North 2.8 mph /  4.5 km/h 3.5 mph /  5.6 km/h 60 % 0.00 in /  0 mm
13:24 55.8 °F /  13.2 °C 43.0 °F /  6.1 °C 30.02 in /  1016.5 hPa NE 4.3 mph /  6.9 km/h 5.8 mph /  9.3 km/h 62 % 0.00 in /  0 mm
13:29 55.8 °F /  13.2 °C 42.1 °F /  5.6 °C 30.02 in /  1016.5 hPa NNW 3.6 mph /  5.8 km/h 4.6 mph /  7.4 km/h 60 % 0.00 in /  0 mm
13:34 55.9 °F /  13.3 °C 43.1 °F /  6.2 °C 30.02 in /  1016.5 hPa NE 2.2 mph /  3.5 km/h 4.6 mph /  7.4 km/h 62 % 0.00 in /  0 mm
13:39 56.2 °F /  13.4 °C 42.9 °F /  6.1 °C 30.02 in /  1016.5 hPa NE 2.0 mph /  3.2 km/h 3.5 mph /  5.6 km/h 61 % 0.00 in /  0 mm
13:44 55.7 °F /  13.2 °C 41.6 °F /  5.3 °C 30.02 in /  1016.5 hPa NE 3.4 mph /  5.5 km/h 8.1 mph /  13 km/h 59 % 0.00 in /  0 mm
13:49 55.5 °F /  13.1 °C 41.8 °F /  5.4 °C 30.02 in /  1016.5 hPa NE 3.9 mph /  6.3 km/h 4.0 mph /  6.4 km/h 60 % 0.00 in /  0 mm
13:52 55.5 °F /  13.1 °C 42.7 °F /  5.9 °C 30.02 in /  1016.5 hPa NE 2.4 mph /  3.9 km/h 4.0 mph /  6.4 km/h 62 % 0.00 in /  0 mm
13:57 55.4 °F /  13 °C 42.6 °F /  5.9 °C 30.02 in /  1016.5 hPa North 5.7 mph /  9.2 km/h 9.2 mph /  14.8 km/h 62 % 0.00 in /  0 mm
14:02 55.5 °F /  13.1 °C 42.3 °F /  5.7 °C 30.02 in /  1016.5 hPa ENE 3.3 mph /  5.3 km/h 4.6 mph /  7.4 km/h 61 % 0.00 in /  0 mm
14:07 55.8 °F /  13.2 °C 41.7 °F /  5.4 °C 30.02 in /  1016.5 hPa NE 4.0 mph /  6.4 km/h 6.9 mph /  11.1 km/h 59 % 0.00 in /  0 mm
14:12 55.9 °F /  13.3 °C 41.8 °F /  5.4 °C 30.02 in /  1016.5 hPa NNE 3.0 mph /  4.8 km/h 8.1 mph /  13 km/h 59 % 0.00 in /  0 mm
14:17 56.2 °F /  13.4 °C 42.9 °F /  6.1 °C 30.02 in /  1016.5 hPa NNE 1.5 mph /  2.4 km/h 3.5 mph /  5.6 km/h 61 % 0.00 in /  0 mm
14:22 56.4 °F /  13.6 °C 43.1 °F /  6.2 °C 30.02 in /  1016.5 hPa ENE 2.1 mph /  3.4 km/h 4.6 mph /  7.4 km/h 61 % 0.00 in /  0 mm
14:27 55.5 °F /  13.1 °C 41.8 °F /  5.4 °C 30.01 in /  1016.1 hPa ENE 2.0 mph /  3.2 km/h 3.5 mph /  5.6 km/h 60 % 0.00 in /  0 mm
14:32 54.8 °F /  12.7 °C 41.2 °F /  5.1 °C 30.01 in /  1016.1 hPa ENE 2.5 mph /  4 km/h 4.6 mph /  7.4 km/h 60 % 0.00 in /  0 mm
14:37 54.9 °F /  12.7 °C 42.5 °F /  5.8 °C 30.01 in /  1016.1 hPa NNE 3.4 mph /  5.5 km/h 5.8 mph /  9.3 km/h 63 % 0.00 in /  0 mm
14:42 54.5 °F /  12.5 °C 40.9 °F /  4.9 °C 30.01 in /  1016.1 hPa North 1.7 mph /  2.7 km/h 4.6 mph /  7.4 km/h 60 % 0.00 in /  0 mm
14:47 54.2 °F /  12.3 °C 41.9 °F /  5.5 °C 30.01 in /  1016.1 hPa ENE 2.2 mph /  3.5 km/h 5.0 mph /  8 km/h 63 % 0.00 in /  0 mm
14:52 54.3 °F /  12.4 °C 42.0 °F /  5.6 °C 30.00 in /  1015.8 hPa NE 3.2 mph /  5.1 km/h 4.6 mph /  7.4 km/h 63 % 0.00 in /  0 mm
14:57 54.4 °F /  12.4 °C 41.6 °F /  5.3 °C 30.00 in /  1015.8 hPa ENE 1.6 mph /  2.6 km/h 3.5 mph /  5.6 km/h 62 % 0.00 in /  0 mm
15:02 54.2 °F /  12.3 °C 41.5 °F /  5.3 °C 30.00 in /  1015.8 hPa East 4.7 mph /  7.6 km/h 8.1 mph /  13 km/h 62 % 0.00 in /  0 mm
15:07 54.0 °F /  12.2 °C 42.5 °F /  5.8 °C 30.00 in /  1015.8 hPa NE 1.7 mph /  2.7 km/h 4.0 mph /  6.4 km/h 65 % 0.00 in /  0 mm
15:12 54.2 °F /  12.3 °C 41.9 °F /  5.5 °C 30.00 in /  1015.8 hPa ENE 1.9 mph /  3.1 km/h 3.5 mph /  5.6 km/h 63 % 0.00 in /  0 mm
15:17 54.2 °F /  12.3 °C 41.9 °F /  5.5 °C 30.00 in /  1015.8 hPa NE 2.4 mph /  3.9 km/h 4.6 mph /  7.4 km/h 63 % 0.00 in /  0 mm
15:22 54.1 °F /  12.3 °C 41.4 °F /  5.2 °C 30.00 in /  1015.8 hPa ENE 2.1 mph /  3.4 km/h 3.5 mph /  5.6 km/h 62 % 0.00 in /  0 mm
15:27 54.0 °F /  12.2 °C 41.7 °F /  5.4 °C 30.00 in /  1015.8 hPa ENE 2.0 mph /  3.2 km/h 4.6 mph /  7.4 km/h 63 % 0.00 in /  0 mm
15:32 54.1 °F /  12.3 °C 41.8 °F /  5.4 °C 30.00 in /  1015.8 hPa NE 3.6 mph /  5.8 km/h 4.6 mph /  7.4 km/h 63 % 0.00 in /  0 mm
15:37 54.2 °F /  12.3 °C 42.3 °F /  5.7 °C 30.00 in /  1015.8 hPa NNE 3.6 mph /  5.8 km/h 5.8 mph /  9.3 km/h 64 % 0.00 in /  0 mm
15:42 54.6 °F /  12.6 °C 42.3 °F /  5.7 °C 30.00 in /  1015.8 hPa NNE 2.0 mph /  3.2 km/h 5.0 mph /  8 km/h 63 % 0.00 in /  0 mm
15:47 54.7 °F /  12.6 °C 41.9 °F /  5.5 °C 30.00 in /  1015.8 hPa NE 2.0 mph /  3.2 km/h 4.0 mph /  6.4 km/h 62 % 0.00 in /  0 mm
15:52 54.8 °F /  12.7 °C 42.0 °F /  5.6 °C 30.00 in /  1015.8 hPa NNE 3.0 mph /  4.8 km/h 6.0 mph /  9.7 km/h 62 % 0.00 in /  0 mm
15:57 55.0 °F /  12.8 °C 41.4 °F /  5.2 °C 30.00 in /  1015.8 hPa ENE 1.7 mph /  2.7 km/h 4.6 mph /  7.4 km/h 60 % 0.00 in /  0 mm
16:03 54.6 °F /  12.6 °C 41.0 °F /  5 °C 30.00 in /  1015.8 hPa ENE 3.9 mph /  6.3 km/h 6.9 mph /  11.1 km/h 60 % 0.00 in /  0 mm
16:08 54.3 °F /  12.4 °C 40.7 °F /  4.8 °C 30.00 in /  1015.8 hPa North 2.5 mph /  4 km/h 3.5 mph /  5.6 km/h 60 % 0.00 in /  0 mm
16:13 54.3 °F /  12.4 °C 40.7 °F /  4.8 °C 30.00 in /  1015.8 hPa NNE 2.6 mph /  4.2 km/h 4.6 mph /  7.4 km/h 60 % 0.00 in /  0 mm
16:18 54.2 °F /  12.3 °C 39.7 °F /  4.3 °C 30.00 in /  1015.8 hPa North 4.9 mph /  7.9 km/h 9.2 mph /  14.8 km/h 58 % 0.00 in /  0 mm
16:23 54.4 °F /  12.4 °C 39.5 °F /  4.2 °C 30.00 in /  1015.8 hPa NNE 4.6 mph /  7.4 km/h 10.4 mph /  16.7 km/h 57 % 0.00 in /  0 mm
16:28 54.6 °F /  12.6 °C 39.7 °F /  4.3 °C 30.00 in /  1015.8 hPa NE 5.4 mph /  8.7 km/h 11.0 mph /  17.7 km/h 57 % 0.00 in /  0 mm
16:33 54.8 °F /  12.7 °C 39.4 °F /  4.1 °C 30.00 in /  1015.8 hPa NNE 6.3 mph /  10.1 km/h 8.1 mph /  13 km/h 56 % 0.00 in /  0 mm
16:38 54.9 °F /  12.7 °C 39.9 °F /  4.4 °C 30.00 in /  1015.8 hPa North 4.6 mph /  7.4 km/h 6.9 mph /  11.1 km/h 57 % 0.00 in /  0 mm
16:43 54.9 °F /  12.7 °C 39.9 °F /  4.4 °C 30.00 in /  1015.8 hPa North 6.4 mph /  10.3 km/h 11.5 mph /  18.5 km/h 57 % 0.00 in /  0 mm
16:48 54.7 °F /  12.6 °C 39.3 °F /  4.1 °C 30.00 in /  1015.8 hPa NE 7.3 mph /  11.7 km/h 11.5 mph /  18.5 km/h 56 % 0.00 in /  0 mm
16:53 54.5 °F /  12.5 °C 39.6 °F /  4.2 °C 30.00 in /  1015.8 hPa NE 6.0 mph /  9.7 km/h 11.5 mph /  18.5 km/h 57 % 0.00 in /  0 mm
16:58 54.4 °F /  12.4 °C 38.1 °F /  3.4 °C 30.00 in /  1015.8 hPa North 6.7 mph /  10.8 km/h 11.5 mph /  18.5 km/h 54 % 0.00 in /  0 mm
17:03 54.4 °F /  12.4 °C 38.1 °F /  3.4 °C 30.00 in /  1015.8 hPa North 6.9 mph /  11.1 km/h 11.5 mph /  18.5 km/h 54 % 0.00 in /  0 mm
17:08 54.3 °F /  12.4 °C 38.0 °F /  3.3 °C 30.00 in /  1015.8 hPa NNE 6.4 mph /  10.3 km/h 9.2 mph /  14.8 km/h 54 % 0.00 in /  0 mm
17:13 54.2 °F /  12.3 °C 37.9 °F /  3.3 °C 30.01 in /  1016.1 hPa NE 8.6 mph /  13.8 km/h 12.0 mph /  19.3 km/h 54 % 0.00 in /  0 mm
17:18 53.9 °F /  12.2 °C 37.6 °F /  3.1 °C 30.02 in /  1016.5 hPa NNE 6.7 mph /  10.8 km/h 11.5 mph /  18.5 km/h 54 % 0.00 in /  0 mm
17:23 53.6 °F /  12 °C 37.8 °F /  3.2 °C 30.02 in /  1016.5 hPa NE 8.2 mph /  13.2 km/h 11.5 mph /  18.5 km/h 55 % 0.00 in /  0 mm
17:28 53.1 °F /  11.7 °C 37.8 °F /  3.2 °C 30.02 in /  1016.5 hPa NNE 5.8 mph /  9.3 km/h 9.2 mph /  14.8 km/h 56 % 0.00 in /  0 mm
17:33 52.3 °F /  11.3 °C 37.1 °F /  2.8 °C 30.03 in /  1016.8 hPa NE 6.2 mph /  10 km/h 11.5 mph /  18.5 km/h 56 % 0.00 in /  0 mm
17:38 51.6 °F /  10.9 °C 36.9 °F /  2.7 °C 30.03 in /  1016.8 hPa NNE 8.3 mph /  13.4 km/h 13.8 mph /  22.2 km/h 57 % 0.00 in /  0 mm
17:43 51.3 °F /  10.7 °C 36.6 °F /  2.6 °C 30.03 in /  1016.8 hPa NNE 5.2 mph /  8.4 km/h 10.4 mph /  16.7 km/h 57 % 0.00 in /  0 mm
17:48 51.0 °F /  10.6 °C 36.7 °F /  2.6 °C 30.03 in /  1016.8 hPa NNW 6.2 mph /  10 km/h 9.2 mph /  14.8 km/h 58 % 0.00 in /  0 mm
17:53 50.6 °F /  10.3 °C 36.8 °F /  2.7 °C 30.04 in /  1017.2 hPa NE 5.5 mph /  8.9 km/h 11.5 mph /  18.5 km/h 59 % 0.00 in /  0 mm
17:58 50.3 °F /  10.2 °C 36.9 °F /  2.7 °C 30.04 in /  1017.2 hPa North 6.4 mph /  10.3 km/h 9.2 mph /  14.8 km/h 60 % 0.00 in /  0 mm
18:03 49.9 °F /  9.9 °C 36.6 °F /  2.6 °C 30.04 in /  1017.2 hPa NNE 6.7 mph /  10.8 km/h 11.5 mph /  18.5 km/h 60 % 0.00 in /  0 mm
18:08 49.6 °F /  9.8 °C 35.0 °F /  1.7 °C 30.05 in /  1017.5 hPa North 8.0 mph /  12.9 km/h 13.8 mph /  22.2 km/h 57 % 0.00 in /  0 mm
18:13 49.5 °F /  9.7 °C 35.8 °F /  2.1 °C 30.05 in /  1017.5 hPa NNE 7.8 mph /  12.6 km/h 12.7 mph /  20.4 km/h 59 % 0.00 in /  0 mm
18:19 49.3 °F /  9.6 °C 35.6 °F /  2 °C 30.05 in /  1017.5 hPa North 6.4 mph /  10.3 km/h 10.4 mph /  16.7 km/h 59 % 0.00 in /  0 mm
18:24 49.1 °F /  9.5 °C 35.8 °F /  2.1 °C 30.05 in /  1017.5 hPa North 6.3 mph /  10.1 km/h 10.4 mph /  16.7 km/h 60 % 0.00 in /  0 mm
18:29 48.8 °F /  9.3 °C 35.1 °F /  1.7 °C 30.06 in /  1017.8 hPa North 8.7 mph /  14 km/h 13.8 mph /  22.2 km/h 59 % 0.00 in /  0 mm
18:34 48.6 °F /  9.2 °C 35.3 °F /  1.8 °C 30.07 in /  1018.2 hPa North 4.3 mph /  6.9 km/h 8.1 mph /  13 km/h 60 % 0.00 in /  0 mm
18:39 48.3 °F /  9.1 °C 35.5 °F /  1.9 °C 30.07 in /  1018.2 hPa NNW 6.0 mph /  9.7 km/h 8.1 mph /  13 km/h 61 % 0.00 in /  0 mm
18:44 47.9 °F /  8.8 °C 35.5 °F /  1.9 °C 30.07 in /  1018.2 hPa North 7.1 mph /  11.4 km/h 11.0 mph /  17.7 km/h 62 % 0.00 in /  0 mm
18:50 47.6 °F /  8.7 °C 34.8 °F /  1.6 °C 30.07 in /  1018.2 hPa NNE 6.8 mph /  10.9 km/h 11.5 mph /  18.5 km/h 61 % 0.00 in /  0 mm
18:55 47.3 °F /  8.5 °C 34.9 °F /  1.6 °C 30.08 in /  1018.5 hPa North 4.6 mph /  7.4 km/h 15.0 mph /  24.1 km/h 62 % 0.00 in /  0 mm
19:00 47.1 °F /  8.4 °C 34.3 °F /  1.3 °C 30.08 in /  1018.5 hPa NNW 7.5 mph /  12.1 km/h 11.5 mph /  18.5 km/h 61 % 0.00 in /  0 mm
19:05 46.9 °F /  8.3 °C 35.0 °F /  1.7 °C 30.08 in /  1018.5 hPa NE 5.8 mph /  9.3 km/h 10.4 mph /  16.7 km/h 63 % 0.00 in /  0 mm
19:10 46.6 °F /  8.1 °C 35.1 °F /  1.7 °C 30.08 in /  1018.5 hPa North 5.1 mph /  8.2 km/h 6.9 mph /  11.1 km/h 64 % 0.00 in /  0 mm
19:15 46.3 °F /  7.9 °C 35.2 °F /  1.8 °C 30.09 in /  1018.8 hPa North 5.5 mph /  8.9 km/h 8.1 mph /  13 km/h 65 % 0.00 in /  0 mm
19:20 46.1 °F /  7.8 °C 35.0 °F /  1.7 °C 30.09 in /  1018.8 hPa NNW 2.2 mph /  3.5 km/h 6.9 mph /  11.1 km/h 65 % 0.00 in /  0 mm
19:25 45.8 °F /  7.7 °C 35.1 °F /  1.7 °C 30.09 in /  1018.8 hPa North 4.9 mph /  7.9 km/h 7.0 mph /  11.3 km/h 66 % 0.00 in /  0 mm
19:30 45.5 °F /  7.5 °C 34.8 °F /  1.6 °C 30.09 in /  1018.8 hPa NW 2.9 mph /  4.7 km/h 5.0 mph /  8 km/h 66 % 0.00 in /  0 mm
19:35 45.2 °F /  7.3 °C 34.5 °F /  1.4 °C 30.09 in /  1018.8 hPa NNE 6.9 mph /  11.1 km/h 10.4 mph /  16.7 km/h 66 % 0.00 in /  0 mm
19:40 45.0 °F /  7.2 °C 34.3 °F /  1.3 °C 30.10 in /  1019.2 hPa NNE 5.2 mph /  8.4 km/h 9.0 mph /  14.5 km/h 66 % 0.00 in /  0 mm
19:45 44.9 °F /  7.2 °C 33.5 °F /  0.8 °C 30.10 in /  1019.2 hPa North 6.0 mph /  9.7 km/h 10.4 mph /  16.7 km/h 64 % 0.00 in /  0 mm
19:50 44.8 °F /  7.1 °C 33.7 °F /  0.9 °C 30.10 in /  1019.2 hPa NNE 5.7 mph /  9.2 km/h 8.1 mph /  13 km/h 65 % 0.00 in /  0 mm
19:55 44.7 °F /  7.1 °C 33.6 °F /  0.9 °C 30.11 in /  1019.5 hPa NNE 4.0 mph /  6.4 km/h 9.2 mph /  14.8 km/h 65 % 0.00 in /  0 mm
20:00 44.6 °F /  7 °C 33.6 °F /  0.9 °C 30.11 in /  1019.5 hPa NNE 4.3 mph /  6.9 km/h 8.1 mph /  13 km/h 65 % 0.00 in /  0 mm
20:05 44.5 °F /  6.9 °C 33.5 °F /  0.8 °C 30.11 in /  1019.5 hPa NNW 3.4 mph /  5.5 km/h 6.9 mph /  11.1 km/h 65 % 0.00 in /  0 mm
20:10 44.5 °F /  6.9 °C 33.5 °F /  0.8 °C 30.12 in /  1019.9 hPa NNE 3.3 mph /  5.3 km/h 6.9 mph /  11.1 km/h 65 % 0.00 in /  0 mm
20:15 44.4 °F /  6.9 °C 33.4 °F /  0.8 °C 30.12 in /  1019.9 hPa North 5.4 mph /  8.7 km/h 10.4 mph /  16.7 km/h 65 % 0.00 in /  0 mm
20:20 44.4 °F /  6.9 °C 32.2 °F /  0.1 °C 30.13 in /  1020.2 hPa North 5.7 mph /  9.2 km/h 10.4 mph /  16.7 km/h 62 % 0.00 in /  0 mm
20:25 44.6 °F /  7 °C 31.1 °F /  -0.5 °C 30.13 in /  1020.2 hPa NNE 6.4 mph /  10.3 km/h 10.0 mph /  16.1 km/h 59 % 0.00 in /  0 mm
20:30 44.7 °F /  7.1 °C 32.1 °F /  0.1 °C 30.13 in /  1020.2 hPa North 5.7 mph /  9.2 km/h 8.1 mph /  13 km/h 61 % 0.00 in /  0 mm
20:35 44.8 °F /  7.1 °C 32.6 °F /  0.3 °C 30.13 in /  1020.2 hPa NNW 6.3 mph /  10.1 km/h 10.0 mph /  16.1 km/h 62 % 0.00 in /  0 mm
20:40 44.7 °F /  7.1 °C 32.5 °F /  0.3 °C 30.14 in /  1020.5 hPa North 6.1 mph /  9.8 km/h 11.5 mph /  18.5 km/h 62 % 0.00 in /  0 mm
20:45 44.7 °F /  7.1 °C 32.1 °F /  0.1 °C 30.14 in /  1020.5 hPa North 5.4 mph /  8.7 km/h 9.2 mph /  14.8 km/h 61 % 0.00 in /  0 mm
20:50 44.7 °F /  7.1 °C 31.7 °F /  -0.2 °C 30.14 in /  1020.5 hPa North 7.8 mph /  12.6 km/h 11.5 mph /  18.5 km/h 60 % 0.00 in /  0 mm
20:55 44.8 °F /  7.1 °C 31.3 °F /  -0.4 °C 30.15 in /  1020.9 hPa NNE 5.7 mph /  9.2 km/h 10.4 mph /  16.7 km/h 59 % 0.00 in /  0 mm
21:00 44.7 °F /  7.1 °C 32.1 °F /  0.1 °C 30.14 in /  1020.5 hPa NNE 3.9 mph /  6.3 km/h 6.9 mph /  11.1 km/h 61 % 0.00 in /  0 mm
21:05 44.6 °F /  7 °C 32.0 °F /  0 °C 30.15 in /  1020.9 hPa North 8.2 mph /  13.2 km/h 10.0 mph /  16.1 km/h 61 % 0.00 in /  0 mm
21:10 44.5 °F /  6.9 °C 32.3 °F /  0.2 °C 30.15 in /  1020.9 hPa North 7.0 mph /  11.3 km/h 9.2 mph /  14.8 km/h 62 % 0.00 in /  0 mm
21:15 44.5 °F /  6.9 °C 31.9 °F /  -0.1 °C 30.15 in /  1020.9 hPa North 3.6 mph /  5.8 km/h 9.2 mph /  14.8 km/h 61 % 0.00 in /  0 mm
21:20 44.3 °F /  6.8 °C 32.1 °F /  0.1 °C 30.16 in /  1021.2 hPa North 5.1 mph /  8.2 km/h 9.0 mph /  14.5 km/h 62 % 0.00 in /  0 mm
21:25 44.2 °F /  6.8 °C 31.6 °F /  -0.2 °C 30.16 in /  1021.2 hPa North 5.4 mph /  8.7 km/h 6.0 mph /  9.7 km/h 61 % 0.00 in /  0 mm
21:30 44.1 °F /  6.7 °C 31.9 °F /  -0.1 °C 30.17 in /  1021.6 hPa NW 4.4 mph /  7.1 km/h 9.2 mph /  14.8 km/h 62 % 0.00 in /  0 mm
21:35 44.0 °F /  6.7 °C 31.4 °F /  -0.3 °C 30.17 in /  1021.6 hPa North 6.2 mph /  10 km/h 9.2 mph /  14.8 km/h 61 % 0.00 in /  0 mm
21:40 43.9 °F /  6.6 °C 31.3 °F /  -0.4 °C 30.17 in /  1021.6 hPa North 7.7 mph /  12.4 km/h 16.1 mph /  25.9 km/h 61 % 0.00 in /  0 mm
21:45 43.8 °F /  6.6 °C 31.2 °F /  -0.4 °C 30.17 in /  1021.6 hPa NNE 6.2 mph /  10 km/h 11.5 mph /  18.5 km/h 61 % 0.00 in /  0 mm
21:50 43.7 °F /  6.5 °C 31.1 °F /  -0.5 °C 30.17 in /  1021.6 hPa NNE 7.9 mph /  12.7 km/h 11.5 mph /  18.5 km/h 61 % 0.00 in /  0 mm
21:55 43.6 °F /  6.4 °C 31.4 °F /  -0.3 °C 30.18 in /  1021.9 hPa NNE 4.5 mph /  7.2 km/h 9.2 mph /  14.8 km/h 62 % 0.00 in /  0 mm
22:00 43.5 °F /  6.4 °C 31.3 °F /  -0.4 °C 30.17 in /  1021.6 hPa NNE 7.1 mph /  11.4 km/h 11.5 mph /  18.5 km/h 62 % 0.00 in /  0 mm
22:05 43.4 °F /  6.3 °C 31.6 °F /  -0.2 °C 30.17 in /  1021.6 hPa North 5.3 mph /  8.5 km/h 8.1 mph /  13 km/h 63 % 0.00 in /  0 mm
22:10 43.3 °F /  6.3 °C 31.5 °F /  -0.3 °C 30.18 in /  1021.9 hPa NE 5.6 mph /  9 km/h 6.9 mph /  11.1 km/h 63 % 0.00 in /  0 mm
22:15 43.1 °F /  6.2 °C 31.4 °F /  -0.3 °C 30.19 in /  1022.2 hPa NW 3.8 mph /  6.1 km/h 10.4 mph /  16.7 km/h 63 % 0.00 in /  0 mm
22:20 43.0 °F /  6.1 °C 31.3 °F /  -0.4 °C 30.19 in /  1022.2 hPa NNE 5.9 mph /  9.5 km/h 8.1 mph /  13 km/h 63 % 0.00 in /  0 mm
22:25 42.9 °F /  6.1 °C 31.6 °F /  -0.2 °C 30.19 in /  1022.2 hPa NNE 4.2 mph /  6.8 km/h 9.2 mph /  14.8 km/h 64 % 0.00 in /  0 mm
22:30 42.8 °F /  6 °C 31.8 °F /  -0.1 °C 30.19 in /  1022.2 hPa NNE 3.2 mph /  5.1 km/h 6.0 mph /  9.7 km/h 65 % 0.00 in /  0 mm
22:35 42.6 °F /  5.9 °C 31.3 °F /  -0.4 °C 30.19 in /  1022.2 hPa North 5.0 mph /  8 km/h 10.4 mph /  16.7 km/h 64 % 0.00 in /  0 mm
22:40 42.4 °F /  5.8 °C 31.5 °F /  -0.3 °C 30.19 in /  1022.2 hPa North 4.2 mph /  6.8 km/h 9.2 mph /  14.8 km/h 65 % 0.00 in /  0 mm
22:46 42.3 °F /  5.7 °C 31.4 °F /  -0.3 °C 30.19 in /  1022.2 hPa NNE 4.2 mph /  6.8 km/h 8.1 mph /  13 km/h 65 % 0.00 in /  0 mm
22:51 42.2 °F /  5.7 °C 31.6 °F /  -0.2 °C 30.19 in /  1022.2 hPa NNW 5.1 mph /  8.2 km/h 10.4 mph /  16.7 km/h 66 % 0.00 in /  0 mm
22:56 42.0 °F /  5.6 °C 30.3 °F /  -0.9 °C 30.19 in /  1022.2 hPa NW 8.6 mph /  13.8 km/h 12.7 mph /  20.4 km/h 63 % 0.00 in /  0 mm
23:01 42.1 °F /  5.6 °C 29.6 °F /  -1.3 °C 30.19 in /  1022.2 hPa North 6.2 mph /  10 km/h 10.4 mph /  16.7 km/h 61 % 0.00 in /  0 mm
23:06 42.2 °F /  5.7 °C 30.5 °F /  -0.8 °C 30.20 in /  1022.6 hPa NNW 6.6 mph /  10.6 km/h 11.5 mph /  18.5 km/h 63 % 0.00 in /  0 mm
23:11 42.1 °F /  5.6 °C 30.4 °F /  -0.9 °C 30.20 in /  1022.6 hPa NNE 4.0 mph /  6.4 km/h 7.0 mph /  11.3 km/h 63 % 0.00 in /  0 mm
23:16 42.1 °F /  5.6 °C 30.0 °F /  -1.1 °C 30.20 in /  1022.6 hPa NNE 5.3 mph /  8.5 km/h 6.9 mph /  11.1 km/h 62 % 0.00 in /  0 mm
23:21 42.0 °F /  5.6 °C 29.9 °F /  -1.2 °C 30.20 in /  1022.6 hPa North 9.4 mph /  15.1 km/h 13.8 mph /  22.2 km/h 62 % 0.00 in /  0 mm
23:26 42.0 °F /  5.6 °C 30.3 °F /  -0.9 °C 30.20 in /  1022.6 hPa North 5.6 mph /  9 km/h 9.2 mph /  14.8 km/h 63 % 0.00 in /  0 mm
23:31 41.9 °F /  5.5 °C 30.6 °F /  -0.8 °C 30.20 in /  1022.6 hPa NNE 3.6 mph /  5.8 km/h 6.9 mph /  11.1 km/h 64 % 0.00 in /  0 mm
23:36 41.7 °F /  5.4 °C 30.4 °F /  -0.9 °C 30.19 in /  1022.2 hPa NNW 6.8 mph /  10.9 km/h 9.2 mph /  14.8 km/h 64 % 0.00 in /  0 mm
23:41 41.6 °F /  5.3 °C 30.7 °F /  -0.7 °C 30.20 in /  1022.6 hPa NNE 6.7 mph /  10.8 km/h 9.2 mph /  14.8 km/h 65 % 0.00 in /  0 mm
23:46 41.5 °F /  5.3 °C 31.0 °F /  -0.6 °C 30.20 in /  1022.6 hPa NE 5.6 mph /  9 km/h 10.4 mph /  16.7 km/h 66 % 0.00 in /  0 mm
23:51 41.4 °F /  5.2 °C 31.6 °F /  -0.2 °C 30.21 in /  1022.9 hPa NNE 5.8 mph /  9.3 km/h 10.4 mph /  16.7 km/h 68 % 0.00 in /  0 mm
23:56 41.2 °F /  5.1 °C 31.4 °F /  -0.3 °C 30.20 in /  1022.6 hPa NNE 6.0 mph /  9.7 km/h 8.1 mph /  13 km/h 68 % 0.00 in /  0 mm
Crab Meadow Weather
Compliments of Weather Underground - 3 mb

Script developed by  Jim McMurry - jmcmurry@mwt.net Adapted for the template by  Wim van der Kuil - Leuven-Template.eu

Hurricanes: A large hurricane stirs up more than a million cubic miles of the atmosphere every second. Hurricane winds can kick up 50 foot or higher waves in the open ocean.